TimeCDT,TemperatureF,Dew PointF,Humidity,Sea Level PressureIn,VisibilityMPH,Wind Direction,Wind SpeedMPH,Gust SpeedMPH,PrecipitationIn,Events,Conditions,WindDirDegrees,DateUTC
12:15 AM,68.0,57.2,68,29.98,10.0,North,4.6,-,N/A,,Clear,350,2013-09-03 05:15:00
12:35 AM,68.0,57.2,68,29.98,10.0,North,3.5,-,N/A,,Clear,350,2013-09-03 05:35:00
12:55 AM,68.0,57.2,68,29.98,10.0,North,3.5,-,N/A,,Clear,350,2013-09-03 05:55:00
1:15 AM,66.2,57.2,73,29.99,10.0,Calm,Calm,-,N/A,,Clear,0,2013-09-03 06:15:00
1:35 AM,62.6,57.2,82,29.99,10.0,Calm,Calm,-,N/A,,Clear,0,2013-09-03 06:35:00
1:55 AM,62.6,57.2,82,29.99,10.0,Calm,Calm,-,N/A,,Clear,0,2013-09-03 06:55:00
2:15 AM,60.8,57.2,88,29.99,10.0,Calm,Calm,-,N/A,,Clear,0,2013-09-03 07:15:00
2:35 AM,60.8,57.2,88,30.00,10.0,Calm,Calm,-,N/A,,Clear,0,2013-09-03 07:35:00
2:55 AM,59.0,57.2,94,30.00,10.0,Calm,Calm,-,N/A,,Clear,0,2013-09-03 07:55:00
3:15 AM,59.0,57.2,94,30.01,10.0,Calm,Calm,-,N/A,,Clear,0,2013-09-03 08:15:00
3:35 AM,59.0,57.2,94,30.01,10.0,Calm,Calm,-,N/A,,Clear,0,2013-09-03 08:35:00
3:55 AM,59.0,57.2,94,30.01,10.0,Calm,Calm,-,N/A,,Clear,0,2013-09-03 08:55:00
4:15 AM,59.0,57.2,94,30.02,10.0,North,3.5,-,N/A,,Clear,360,2013-09-03 09:15:00
4:35 AM,59.0,57.2,94,30.02,10.0,NW,3.5,-,N/A,,Clear,320,2013-09-03 09:35:00
4:55 AM,57.2,55.4,94,30.02,10.0,North,3.5,-,N/A,,Clear,360,2013-09-03 09:55:00
5:15 AM,57.2,55.4,94,30.03,10.0,Calm,Calm,-,N/A,,Clear,0,2013-09-03 10:15:00
5:35 AM,57.2,55.4,94,30.03,10.0,WNW,3.5,-,N/A,,Clear,290,2013-09-03 10:35:00
5:55 AM,55.4,55.4,100,30.04,10.0,Calm,Calm,-,N/A,,Clear,0,2013-09-03 10:55:00
6:15 AM,55.4,55.4,100,30.04,10.0,NNW,4.6,-,N/A,,Clear,330,2013-09-03 11:15:00
6:35 AM,55.4,55.4,100,30.05,10.0,NNW,3.5,-,N/A,,Clear,340,2013-09-03 11:35:00
6:55 AM,55.4,55.4,100,30.05,10.0,NW,3.5,-,N/A,,Clear,320,2013-09-03 11:55:00
7:15 AM,55.4,55.4,100,30.06,10.0,Calm,Calm,-,N/A,,Clear,0,2013-09-03 12:15:00
7:35 AM,57.2,57.2,100,30.07,10.0,Calm,Calm,-,N/A,,Clear,0,2013-09-03 12:35:00
7:55 AM,59.0,55.4,88,30.07,10.0,Calm,Calm,-,N/A,,Clear,0,2013-09-03 12:55:00
8:15 AM,60.8,57.2,88,30.07,10.0,NNW,3.5,-,N/A,,Clear,330,2013-09-03 13:15:00
8:35 AM,62.6,57.2,82,30.07,10.0,Calm,Calm,-,N/A,,Clear,0,2013-09-03 13:35:00
8:55 AM,64.4,57.2,77,30.08,10.0,NW,3.5,-,N/A,,Clear,320,2013-09-03 13:55:00
9:15 AM,66.2,59.0,78,30.08,10.0,Calm,Calm,-,N/A,,Clear,0,2013-09-03 14:15:00
9:35 AM,68.0,59.0,73,30.09,10.0,Calm,Calm,-,N/A,,Clear,0,2013-09-03 14:35:00
9:55 AM,69.8,60.8,73,30.09,10.0,Calm,Calm,-,N/A,,Clear,0,2013-09-03 14:55:00
10:15 AM,71.6,59.0,64,30.09,10.0,West,4.6,-,N/A,,Clear,280,2013-09-03 15:15:00
10:35 AM,73.4,55.4,53,30.09,10.0,West,4.6,-,N/A,,Clear,270,2013-09-03 15:35:00
10:55 AM,73.4,57.2,57,30.09,10.0,West,4.6,-,N/A,,Clear,260,2013-09-03 15:55:00
11:15 AM,75.2,55.4,50,30.09,10.0,WNW,5.8,-,N/A,,Clear,290,2013-09-03 16:15:00
11:35 AM,75.2,55.4,50,30.09,10.0,WNW,6.9,-,N/A,,Clear,290,2013-09-03 16:35:00
11:55 AM,77.0,53.6,44,30.08,10.0,North,8.1,-,N/A,,Clear,10,2013-09-03 16:55:00
12:15 PM,77.0,53.6,44,30.07,10.0,NW,6.9,-,N/A,,Clear,310,2013-09-03 17:15:00
12:35 PM,77.0,53.6,44,30.07,10.0,NNW,4.6,-,N/A,,Clear,330,2013-09-03 17:35:00
12:55 PM,77.0,53.6,44,30.06,10.0,Calm,Calm,-,N/A,,Clear,0,2013-09-03 17:55:00
1:15 PM,78.8,51.8,39,30.06,10.0,Calm,Calm,-,N/A,,Clear,0,2013-09-03 18:15:00
1:35 PM,78.8,50.0,36,30.05,10.0,WSW,5.8,-,N/A,,Clear,240,2013-09-03 18:35:00
1:55 PM,80.6,50.0,34,30.05,10.0,Calm,Calm,-,N/A,,Clear,0,2013-09-03 18:55:00
2:15 PM,80.6,50.0,34,30.04,10.0,Calm,Calm,-,N/A,,Clear,0,2013-09-03 19:15:00
2:35 PM,82.4,50.0,32,30.04,10.0,West,5.8,-,N/A,,Clear,280,2013-09-03 19:35:00
2:55 PM,82.4,50.0,32,30.03,10.0,West,4.6,-,N/A,,Clear,270,2013-09-03 19:55:00
3:15 PM,82.4,50.0,32,30.02,10.0,WNW,8.1,-,N/A,,Clear,290,2013-09-03 20:15:00
3:35 PM,82.4,50.0,32,30.02,10.0,West,3.5,-,N/A,,Clear,280,2013-09-03 20:35:00
3:55 PM,82.4,50.0,32,30.01,10.0,WSW,4.6,-,N/A,,Clear,240,2013-09-03 20:55:00
4:15 PM,82.4,50.0,32,30.01,10.0,West,4.6,-,N/A,,Clear,280,2013-09-03 21:15:00
4:35 PM,82.4,50.0,32,30.01,10.0,West,4.6,-,N/A,,Clear,280,2013-09-03 21:35:00
4:55 PM,82.4,48.2,30,30.01,10.0,West,3.5,-,N/A,,Clear,270,2013-09-03 21:55:00
5:15 PM,84.2,50.0,30,30.00,10.0,SW,3.5,-,N/A,,Clear,220,2013-09-03 22:15:00
5:35 PM,84.2,50.0,30,30.00,10.0,West,3.5,-,N/A,,Clear,270,2013-09-03 22:35:00
5:55 PM,82.4,48.2,30,30.00,10.0,WNW,3.5,-,N/A,,Clear,290,2013-09-03 22:55:00
6:15 PM,82.4,53.6,37,30.00,10.0,SE,4.6,-,N/A,,Clear,140,2013-09-03 23:15:00
6:35 PM,80.6,55.4,42,30.00,10.0,ESE,4.6,-,N/A,,Clear,120,2013-09-03 23:35:00
6:55 PM,78.8,57.2,47,30.00,10.0,ESE,4.6,-,N/A,,Clear,110,2013-09-03 23:55:00
7:15 PM,77.0,57.2,50,30.00,10.0,East,4.6,-,N/A,,Clear,90,2013-09-04 00:15:00
7:35 PM,77.0,55.4,47,30.01,10.0,ENE,4.6,-,N/A,,Clear,70,2013-09-04 00:35:00
7:55 PM,73.4,55.4,53,30.01,10.0,ENE,4.6,-,N/A,,Clear,70,2013-09-04 00:55:00
8:15 PM,73.4,55.4,53,30.02,10.0,Calm,Calm,-,N/A,,Clear,0,2013-09-04 01:15:00
8:35 PM,73.4,55.4,53,30.02,10.0,Calm,Calm,-,N/A,,Clear,0,2013-09-04 01:35:00
8:55 PM,71.6,57.2,60,30.03,10.0,NE,3.5,-,N/A,,Clear,40,2013-09-04 01:55:00
9:15 PM,71.6,57.2,60,30.03,10.0,NNE,3.5,-,N/A,,Clear,30,2013-09-04 02:15:00
9:35 PM,68.0,57.2,68,30.04,10.0,Calm,Calm,-,N/A,,Clear,0,2013-09-04 02:35:00
9:55 PM,66.2,57.2,73,30.04,10.0,Calm,Calm,-,N/A,,Clear,0,2013-09-04 02:55:00
10:15 PM,66.2,57.2,73,30.05,10.0,Calm,Calm,-,N/A,,Clear,0,2013-09-04 03:15:00
10:35 PM,64.4,57.2,77,30.06,10.0,Calm,Calm,-,N/A,,Clear,0,2013-09-04 03:35:00
10:55 PM,64.4,57.2,77,30.06,10.0,Calm,Calm,-,N/A,,Clear,0,2013-09-04 03:55:00
11:15 PM,62.6,57.2,82,30.06,10.0,Calm,Calm,-,N/A,,Clear,0,2013-09-04 04:15:00
11:35 PM,62.6,57.2,82,30.06,10.0,Calm,Calm,-,N/A,,Clear,0,2013-09-04 04:35:00
11:55 PM,62.6,57.2,82,30.07,10.0,Calm,Calm,-,N/A,,Partly Cloudy,0,2013-09-04 04:55:00